createdAt,value
2018-05-08T00:02:24.722Z,45.90
2018-05-08T00:04:54.163Z,45.80
2018-05-08T00:07:21.643Z,46.70
2018-05-08T00:09:50.885Z,47.40
2018-05-08T00:12:29.069Z,47.70
2018-05-08T00:14:57.907Z,48.00
2018-05-08T00:17:26.123Z,48.50
2018-05-08T00:19:53.578Z,48.80
2018-05-08T00:22:25.956Z,49.00
2018-05-08T00:24:53.366Z,49.20
2018-05-08T00:27:29.584Z,49.60
2018-05-08T00:29:59.915Z,49.60
2018-05-08T00:32:27.409Z,50.20
2018-05-08T00:34:54.899Z,50.20
2018-05-08T00:37:22.378Z,50.90
2018-05-08T00:39:50.784Z,50.30
2018-05-08T00:42:18.848Z,50.50
2018-05-08T00:44:46.339Z,50.70
2018-05-08T00:47:14.601Z,51.10
2018-05-08T00:49:42.071Z,51.10
2018-05-08T00:52:10.309Z,51.40
2018-05-08T00:54:49.740Z,51.40
2018-05-08T00:57:17.233Z,51.40
2018-05-08T00:59:45.494Z,52.30
2018-05-08T01:02:12.975Z,52.20
2018-05-08T01:04:41.438Z,52.80
2018-05-08T01:07:09.708Z,53.10
2018-05-08T01:09:37.184Z,53.10
2018-05-08T01:12:05.425Z,54.00
2018-05-08T01:14:32.937Z,54.00
2018-05-08T01:17:00.454Z,54.30
2018-05-08T01:19:27.899Z,54.60
2018-05-08T01:21:55.380Z,54.90
2018-05-08T01:24:23.630Z,55.30
2018-05-08T01:26:51.115Z,55.30
2018-05-08T01:29:19.362Z,56.30
2018-05-08T01:31:46.837Z,56.20
2018-05-08T01:34:15.080Z,56.80
2018-05-08T01:36:42.562Z,56.70
2018-05-08T01:39:10.817Z,57.50
2018-05-08T01:41:38.301Z,57.50
2018-05-08T01:44:06.574Z,58.50
2018-05-08T01:46:34.819Z,58.70
2018-05-08T01:49:02.312Z,58.70
2018-05-08T01:51:30.588Z,59.30
2018-05-08T01:53:58.060Z,59.30
2018-05-08T01:56:25.558Z,59.70
2018-05-08T01:58:56.355Z,59.60
2018-05-08T02:01:25.873Z,60.40
2018-05-08T02:03:54.151Z,60.10
2018-05-08T02:06:22.413Z,61.60
2018-05-08T02:08:51.646Z,62.10
2018-05-08T02:11:22.367Z,63.00
2018-05-08T02:13:51.136Z,63.50
2018-05-08T02:16:26.089Z,64.10
2018-05-08T02:18:54.453Z,65.10
2018-05-08T02:21:25.828Z,65.60
2018-05-08T02:23:58.050Z,65.50
2018-05-08T02:26:30.108Z,66.40
2018-05-08T02:29:02.687Z,66.20
2018-05-08T02:31:35.050Z,66.40
2018-05-08T02:34:03.948Z,66.40
2018-05-08T02:36:35.060Z,66.80
2018-05-08T02:39:09.207Z,67.90
2018-05-08T02:41:37.173Z,67.90
2018-05-08T02:44:08.955Z,68.50
2018-05-08T02:46:43.024Z,68.40
2018-05-08T02:49:20.060Z,69.20
2018-05-08T02:51:48.539Z,69.30
2018-05-08T02:54:17.826Z,69.60
2018-05-08T02:56:51.375Z,70.30
2018-05-08T02:59:23.663Z,70.80
2018-05-08T03:01:52.174Z,71.10
2018-05-08T03:04:22.394Z,71.10
2018-05-08T03:06:52.168Z,71.40
2018-05-08T03:09:21.722Z,71.90
2018-05-08T03:11:59.221Z,72.40
2018-05-08T03:14:31.524Z,72.20
2018-05-08T03:16:59.869Z,72.60
2018-05-08T03:19:28.598Z,73.30
2018-05-08T03:21:58.097Z,73.90
2018-05-08T03:24:27.408Z,73.70
2018-05-08T03:26:56.781Z,74.10
2018-05-08T03:29:25.168Z,74.60
2018-05-08T03:31:58.058Z,74.80
2018-05-08T03:34:32.745Z,74.80
2018-05-08T03:37:01.157Z,75.10
2018-05-08T03:39:32.369Z,74.90
2018-05-08T03:42:02.796Z,76.00
2018-05-08T03:44:41.938Z,76.50
2018-05-08T03:47:13.631Z,76.40
2018-05-08T03:49:42.046Z,77.00
2018-05-08T03:52:18.297Z,76.80
2018-05-08T03:54:49.540Z,77.20
2018-05-08T03:59:56.576Z,77.50
2018-05-08T04:02:39.769Z,77.50
2018-05-08T04:05:20.553Z,77.60
2018-05-08T04:08:02.118Z,77.90
2018-05-08T04:10:33.504Z,77.90
2018-05-08T04:13:06.040Z,78.30
2018-05-08T04:18:11.697Z,78.20
2018-05-08T04:20:42.939Z,78.10
2018-05-08T04:23:16.026Z,78.20
2018-05-08T04:25:44.482Z,78.00
2018-05-08T04:28:11.933Z,78.60
2018-05-08T04:33:31.781Z,71.60
2018-05-08T04:35:59.259Z,71.60
2018-05-08T04:38:26.734Z,67.00
2018-05-08T04:40:59.112Z,62.80
2018-05-08T04:43:28.428Z,59.10
2018-05-08T04:45:55.996Z,56.60
2018-05-08T04:48:25.190Z,52.20
2018-05-08T04:50:52.653Z,52.20
2018-05-08T04:53:20.136Z,50.20
2018-05-08T04:55:48.532Z,46.80
2018-05-08T04:58:16.801Z,45.10
2018-05-08T05:00:45.037Z,43.60
2018-05-08T05:03:12.545Z,43.50
2018-05-08T05:05:40.069Z,42.30
2018-05-08T05:08:08.326Z,39.70
2018-05-08T05:10:35.800Z,39.60
2018-05-08T05:13:03.498Z,38.60
2018-05-08T05:15:32.379Z,37.50
2018-05-08T05:17:59.872Z,36.50
2018-05-08T05:20:27.361Z,35.50
2018-05-08T05:22:54.920Z,34.30
2018-05-08T05:25:22.411Z,33.70
2018-05-08T05:27:49.892Z,32.90
2018-05-08T05:30:17.424Z,32.20
2018-05-08T05:32:44.912Z,31.50
2018-05-08T05:35:13.364Z,30.80
2018-05-08T05:37:41.736Z,30.20
2018-05-08T05:40:09.210Z,29.70
2018-05-08T05:42:36.754Z,29.40
2018-05-08T05:45:04.996Z,28.40
2018-05-08T05:47:33.235Z,27.80
2018-05-08T05:50:00.959Z,27.80
2018-05-08T05:52:28.465Z,27.70
2018-05-08T05:54:55.992Z,27.30
2018-05-08T05:57:23.461Z,26.90
2018-05-08T05:59:50.951Z,26.50
2018-05-08T06:02:18.405Z,26.40
2018-05-08T06:04:46.661Z,25.80
2018-05-08T06:07:14.125Z,25.80
2018-05-08T06:09:42.565Z,25.10
2018-05-08T06:12:10.121Z,25.00
2018-05-08T06:14:37.610Z,25.00
2018-05-08T06:17:05.094Z,24.90
2018-05-08T06:19:33.321Z,24.10
2018-05-08T06:22:00.859Z,24.10
2018-05-08T06:24:28.366Z,23.60
2018-05-08T06:26:55.895Z,23.60
2018-05-08T06:29:23.392Z,22.30
2018-05-08T06:31:52.722Z,22.40
2018-05-08T06:34:20.212Z,22.40
2018-05-08T06:36:47.687Z,22.50
2018-05-08T06:39:16.020Z,22.40
2018-05-08T06:41:43.534Z,20.90
2018-05-08T06:44:11.009Z,20.80
2018-05-08T06:46:38.564Z,20.70
2018-05-08T06:49:06.809Z,21.20
2018-05-08T06:51:34.304Z,21.20
2018-05-08T06:54:01.825Z,21.20
2018-05-08T06:56:29.328Z,20.90
2018-05-08T06:58:56.881Z,20.30
2018-05-08T07:01:24.353Z,20.30
2018-05-08T07:03:51.835Z,20.60
2018-05-08T07:06:19.305Z,20.30
2018-05-08T07:08:47.015Z,20.40
2018-05-08T07:11:14.435Z,20.50
2018-05-08T07:13:42.751Z,19.50
2018-05-08T07:16:10.421Z,19.50
2018-05-08T07:18:38.609Z,19.50
2018-05-08T07:21:06.099Z,19.40
2018-05-08T07:23:34.341Z,20.10
2018-05-08T07:26:01.805Z,20.10
2018-05-08T07:28:29.359Z,20.20
2018-05-08T07:30:57.190Z,19.70
2018-05-08T07:33:24.704Z,20.20
2018-05-08T07:35:52.295Z,20.60
2018-05-08T07:38:19.929Z,20.70
2018-05-08T07:40:47.726Z,20.20
2018-05-08T07:43:15.263Z,20.10
2018-05-08T07:45:44.467Z,19.80
2018-05-08T07:48:12.232Z,19.80
2018-05-08T07:50:39.936Z,20.40
2018-05-08T07:53:07.474Z,20.20
2018-05-08T07:55:35.104Z,20.20
2018-05-08T07:58:03.218Z,20.10
2018-05-08T08:00:30.863Z,19.90
2018-05-08T08:02:58.412Z,19.30
2018-05-08T08:05:25.960Z,18.90
2018-05-08T08:07:53.527Z,19.00
2018-05-08T08:10:21.298Z,19.00
2018-05-08T08:12:48.800Z,18.90
2018-05-08T08:15:16.269Z,19.10
2018-05-08T08:17:44.537Z,19.00
2018-05-08T08:20:12.792Z,19.10
2018-05-08T08:22:40.282Z,19.10
2018-05-08T08:25:07.774Z,19.00
2018-05-08T08:27:35.266Z,19.20
2018-05-08T08:30:02.754Z,19.40
2018-05-08T08:32:30.217Z,19.20
2018-05-08T08:34:57.687Z,19.10
2018-05-08T08:37:25.165Z,18.70
2018-05-08T08:39:52.674Z,18.30
2018-05-08T08:42:20.973Z,18.40
2018-05-08T08:44:48.445Z,18.40
2018-05-08T08:47:15.995Z,18.70
2018-05-08T08:49:43.468Z,18.80
2018-05-08T08:52:10.933Z,18.50
2018-05-08T08:54:39.925Z,18.90
2018-05-08T08:57:07.411Z,18.60
2018-05-08T08:59:34.907Z,18.40
2018-05-08T09:02:02.445Z,17.90
2018-05-08T09:04:29.982Z,17.60
2018-05-08T09:06:58.212Z,18.10
2018-05-08T09:09:25.746Z,18.10
2018-05-08T09:11:53.287Z,18.20
2018-05-08T09:14:21.621Z,18.40
2018-05-08T09:16:49.185Z,18.40
2018-05-08T09:19:16.712Z,18.10
2018-05-08T09:21:44.186Z,18.50
2018-05-08T09:24:11.679Z,17.80
2018-05-08T09:26:39.923Z,18.20
2018-05-08T09:29:07.411Z,18.10
2018-05-08T09:31:35.652Z,18.00
2018-05-08T09:34:03.120Z,18.00
2018-05-08T09:36:30.607Z,17.50
2018-05-08T09:38:58.122Z,17.30
2018-05-08T09:41:25.596Z,17.50
2018-05-08T09:43:53.075Z,17.20
2018-05-08T09:46:21.310Z,18.10
2018-05-08T09:48:48.853Z,17.60
2018-05-08T09:51:16.295Z,17.70
2018-05-08T09:53:43.780Z,18.00
2018-05-08T09:56:11.245Z,17.60
2018-05-08T09:58:39.576Z,16.80
2018-05-08T10:01:07.094Z,16.80
2018-05-08T10:03:34.535Z,16.70
2018-05-08T10:06:02.779Z,16.90
2018-05-08T10:08:31.186Z,16.90
2018-05-08T10:10:58.683Z,17.10
2018-05-08T10:13:26.166Z,16.10
2018-05-08T10:15:53.674Z,16.00
2018-05-08T10:18:21.909Z,15.80
2018-05-08T10:20:49.379Z,15.80
2018-05-08T10:23:16.868Z,15.80
2018-05-08T10:25:45.123Z,15.60
2018-05-08T10:28:13.384Z,15.90
2018-05-08T10:30:40.899Z,15.80
2018-05-08T10:33:08.389Z,15.80
2018-05-08T10:35:36.833Z,16.10
2018-05-08T10:38:05.983Z,16.30
2018-05-08T10:40:40.589Z,16.50
2018-05-08T10:43:08.074Z,16.90
2018-05-08T10:45:36.312Z,16.00
2018-05-08T10:48:03.781Z,15.90
2018-05-08T10:50:31.303Z,16.20
2018-05-08T10:52:58.783Z,17.00
2018-05-08T10:55:26.282Z,17.40
2018-05-08T10:57:53.779Z,17.20
2018-05-08T11:00:21.260Z,18.10
2018-05-08T11:02:48.795Z,18.80
2018-05-08T11:05:16.228Z,19.60
2018-05-08T11:07:43.751Z,20.80
2018-05-08T11:10:11.333Z,21.20
2018-05-08T11:12:38.825Z,21.90
2018-05-08T11:15:06.335Z,22.70
2018-05-08T11:17:34.578Z,23.90
2018-05-08T11:20:02.058Z,23.80
2018-05-08T11:22:30.313Z,24.70
2018-05-08T11:24:57.780Z,24.70
2018-05-08T11:27:25.269Z,25.20
2018-05-08T11:29:52.756Z,25.50
2018-05-08T11:32:20.300Z,24.80
2018-05-08T11:34:58.249Z,23.90
2018-05-08T11:37:33.994Z,24.10
2018-05-08T11:40:05.331Z,24.60
2018-05-08T11:42:32.819Z,24.80
2018-05-08T11:45:01.076Z,24.90
2018-05-08T11:47:28.581Z,24.90
2018-05-08T11:49:56.176Z,24.70
2018-05-08T11:52:23.593Z,25.10
2018-05-08T11:54:51.093Z,24.70
2018-05-08T11:57:18.616Z,24.80
2018-05-08T11:59:46.085Z,24.90
2018-05-08T12:02:13.646Z,24.90
2018-05-08T12:04:41.212Z,24.90
2018-05-08T12:07:09.404Z,24.70
2018-05-08T12:09:36.894Z,24.70
2018-05-08T12:12:04.383Z,24.30
2018-05-08T12:14:31.972Z,24.20
2018-05-08T12:17:00.140Z,24.00
2018-05-08T12:19:27.649Z,24.00
2018-05-08T12:21:55.308Z,23.80
2018-05-08T12:24:22.876Z,23.90
2018-05-08T12:26:50.368Z,24.40
2018-05-08T12:29:19.454Z,23.80
2018-05-08T12:31:46.985Z,23.70
2018-05-08T12:34:15.020Z,24.00
2018-05-08T12:36:42.497Z,23.90
2018-05-08T12:39:09.980Z,23.40
2018-05-08T12:41:37.669Z,23.70
2018-05-08T12:44:05.123Z,23.80
2018-05-08T12:46:32.617Z,23.70
2018-05-08T12:49:00.260Z,24.00
2018-05-08T12:51:28.509Z,24.30
2018-05-08T12:53:55.970Z,24.30
2018-05-08T12:56:23.581Z,24.30
2018-05-08T12:58:51.050Z,23.90
2018-05-08T13:01:19.161Z,23.00
2018-05-08T13:03:47.408Z,24.10
2018-05-08T13:06:14.964Z,24.00
2018-05-08T13:08:42.726Z,23.60
2018-05-08T13:11:10.279Z,24.20
2018-05-08T13:13:37.822Z,24.10
2018-05-08T13:16:05.302Z,23.80
2018-05-08T13:18:32.921Z,23.90
2018-05-08T13:21:00.470Z,24.60
2018-05-08T13:23:28.037Z,24.20
2018-05-08T13:25:55.493Z,23.50
2018-05-08T13:28:23.018Z,23.70
2018-05-08T13:30:51.284Z,23.70
2018-05-08T13:33:26.880Z,23.20
2018-05-08T13:35:54.909Z,22.90
2018-05-08T13:38:23.411Z,23.30
2018-05-08T13:40:52.997Z,23.80
2018-05-08T13:43:26.183Z,23.80
2018-05-08T13:46:12.489Z,22.80
2018-05-08T13:48:41.752Z,23.10
2018-05-08T13:51:09.402Z,23.40
2018-05-08T13:53:36.931Z,23.10
2018-05-08T13:58:52.235Z,23.60
2018-05-08T14:01:31.191Z,24.10
2018-05-08T14:03:58.672Z,24.40
2018-05-08T14:06:42.067Z,24.30
2018-05-08T14:09:12.026Z,24.30
2018-05-08T14:11:43.605Z,24.40
2018-05-08T14:14:12.620Z,24.70
2018-05-08T14:16:41.988Z,24.30
2018-05-08T14:19:09.493Z,24.30
2018-05-08T14:21:37.049Z,23.50
2018-05-08T14:24:04.517Z,23.40
2018-05-08T14:26:32.170Z,23.70
2018-05-08T14:28:59.641Z,23.50
2018-05-08T14:31:27.157Z,23.50
2018-05-08T14:33:54.641Z,23.50
2018-05-08T14:36:23.663Z,24.30
2018-05-08T14:38:51.921Z,24.60
2018-05-08T14:41:20.239Z,24.30
2018-05-08T14:43:48.006Z,24.20
2018-05-08T14:46:15.630Z,24.30
2018-05-08T14:48:43.910Z,24.10
2018-05-08T14:51:12.181Z,24.10
2018-05-08T14:53:40.517Z,23.70
2018-05-08T14:56:08.015Z,23.70
2018-05-08T14:58:36.524Z,24.20
2018-05-08T15:01:06.326Z,24.20
2018-05-08T15:03:33.845Z,23.00
2018-05-08T15:06:01.356Z,23.00
2018-05-08T15:08:29.073Z,22.00
2018-05-08T15:10:57.332Z,21.60
2018-05-08T15:13:24.857Z,21.50
2018-05-08T15:15:52.339Z,21.70
2018-05-08T15:18:19.908Z,21.70
2018-05-08T15:20:47.410Z,22.10
2018-05-08T15:23:14.928Z,22.50
2018-05-08T15:25:43.205Z,21.40
2018-05-08T15:28:11.548Z,21.50
2018-05-08T15:30:39.033Z,21.50
2018-05-08T15:33:06.559Z,21.40
2018-05-08T15:35:34.075Z,21.00
2018-05-08T15:38:01.749Z,20.40
2018-05-08T15:40:29.272Z,21.10
2018-05-08T15:42:57.510Z,21.30
2018-05-08T15:45:25.083Z,21.20
2018-05-08T15:47:53.338Z,21.70
2018-05-08T15:50:20.857Z,21.60
2018-05-08T15:52:48.346Z,21.70
2018-05-08T15:55:15.971Z,21.90
2018-05-08T15:57:43.398Z,21.70
2018-05-08T16:00:11.729Z,22.10
2018-05-08T16:02:39.261Z,21.50
2018-05-08T16:05:06.790Z,21.50
2018-05-08T16:07:34.300Z,21.30
2018-05-08T16:10:01.804Z,21.50
2018-05-08T16:12:29.304Z,21.70
2018-05-08T16:14:56.789Z,21.70
2018-05-08T16:17:24.303Z,21.50
2018-05-08T16:19:51.781Z,21.60
2018-05-08T16:22:19.614Z,21.70
2018-05-08T16:24:47.921Z,21.40
2018-05-08T16:27:15.489Z,21.40
2018-05-08T16:29:42.977Z,20.90
2018-05-08T16:32:10.479Z,21.30
2018-05-08T16:34:37.961Z,21.20
2018-05-08T16:37:05.567Z,20.90
2018-05-08T16:39:33.961Z,21.20
2018-05-08T16:42:01.640Z,21.20
2018-05-08T16:44:29.139Z,21.30
2018-05-08T16:46:56.670Z,21.40
2018-05-08T16:49:24.267Z,21.20
2018-05-08T16:51:52.701Z,21.70
2018-05-08T16:54:20.214Z,22.20
2018-05-08T16:56:47.734Z,22.10
2018-05-08T16:59:15.229Z,22.10
2018-05-08T17:01:43.474Z,21.70
2018-05-08T17:04:10.974Z,21.60
2018-05-08T17:06:38.603Z,22.00
2018-05-08T17:09:06.874Z,21.70
2018-05-08T17:11:34.334Z,21.70
2018-05-08T17:14:01.818Z,21.80
2018-05-08T17:16:29.295Z,21.60
2018-05-08T17:18:56.778Z,21.60
2018-05-08T17:21:24.266Z,21.80
2018-05-08T17:23:52.554Z,22.40
2018-05-08T17:26:20.816Z,22.60
2018-05-08T17:28:49.049Z,22.90
2018-05-08T17:31:16.572Z,22.80
2018-05-08T17:33:44.142Z,22.50
2018-05-08T17:36:11.649Z,22.50
2018-05-08T17:38:39.673Z,23.00
2018-05-08T17:41:07.170Z,22.90
2018-05-08T17:43:34.716Z,23.20
2018-05-08T17:46:02.323Z,22.80
2018-05-08T17:48:31.226Z,22.80
2018-05-08T17:50:59.560Z,23.00
2018-05-08T17:53:27.419Z,23.00
2018-05-08T17:55:55.713Z,23.30
2018-05-08T17:58:23.987Z,23.40
2018-05-08T18:00:52.294Z,23.40
2018-05-08T18:03:19.898Z,23.40
2018-05-08T18:05:49.425Z,23.80
2018-05-08T18:08:17.317Z,23.90
2018-05-08T18:10:44.798Z,24.10
2018-05-08T18:13:12.797Z,24.00
2018-05-08T18:15:40.325Z,24.40
2018-05-08T18:18:07.855Z,24.10
2018-05-08T18:20:35.429Z,24.30
2018-05-08T18:23:05.581Z,24.70
2018-05-08T18:25:33.153Z,24.70
2018-05-08T18:28:00.739Z,25.10
2018-05-08T18:30:29.160Z,25.60
2018-05-08T18:33:00.833Z,25.60
2018-05-08T18:35:33.684Z,25.70
2018-05-08T18:38:01.211Z,25.90
2018-05-08T18:40:28.717Z,26.00
2018-05-08T18:42:56.227Z,26.40
2018-05-08T18:45:23.680Z,26.70
2018-05-08T18:47:51.370Z,26.90
2018-05-08T18:50:19.094Z,27.20
2018-05-08T18:52:47.405Z,27.90
2018-05-08T18:55:15.113Z,27.80
2018-05-08T18:57:42.639Z,28.40
2018-05-08T19:00:15.997Z,28.90
2018-05-08T19:02:43.505Z,29.10
2018-05-08T19:05:11.152Z,29.70
2018-05-08T19:07:38.700Z,30.00
2018-05-08T19:10:06.372Z,30.60
2018-05-08T19:12:33.929Z,31.00
2018-05-08T19:15:07.043Z,31.40
2018-05-08T19:17:34.576Z,31.70
2018-05-08T19:20:05.639Z,32.00
2018-05-08T19:22:34.044Z,32.10
2018-05-08T19:25:01.529Z,32.50
2018-05-08T19:27:30.483Z,33.10
2018-05-08T19:30:05.267Z,33.30
2018-05-08T19:32:32.782Z,33.60
2018-05-08T19:35:05.923Z,33.80
2018-05-08T19:37:39.105Z,34.30
2018-05-08T19:40:06.582Z,35.20
2018-05-08T19:42:34.548Z,36.00
2018-05-08T19:45:02.136Z,36.80
2018-05-08T19:47:30.403Z,36.80
2018-05-08T19:49:58.747Z,36.70
2018-05-08T19:52:26.259Z,36.70
2018-05-08T19:54:53.720Z,36.80
2018-05-08T19:57:21.187Z,37.10
2018-05-08T19:59:48.859Z,37.70
2018-05-08T20:02:16.490Z,37.00
2018-05-08T20:04:44.154Z,37.30
2018-05-08T20:07:11.728Z,37.20
2018-05-08T20:09:39.379Z,37.20
2018-05-08T20:12:06.937Z,37.20
2018-05-08T20:14:34.591Z,37.40
2018-05-08T20:17:02.290Z,37.70
2018-05-08T20:19:30.822Z,38.40
2018-05-08T20:21:58.381Z,38.40
2018-05-08T20:24:26.007Z,38.70
2018-05-08T20:26:53.667Z,38.60
2018-05-08T20:29:21.194Z,39.00
2018-05-08T20:31:48.814Z,38.80
2018-05-08T20:34:16.369Z,39.00
2018-05-08T20:36:44.558Z,39.20
2018-05-08T20:39:12.099Z,39.30
2018-05-08T20:41:40.509Z,39.30
2018-05-08T20:44:08.205Z,39.20
2018-05-08T20:46:35.680Z,39.30
2018-05-08T20:49:03.940Z,40.00
2018-05-08T20:51:31.456Z,39.40
2018-05-08T20:53:59.007Z,39.30
2018-05-08T20:56:26.478Z,39.10
2018-05-08T20:58:53.956Z,39.30
2018-05-08T21:01:22.352Z,39.50
2018-05-08T21:03:50.519Z,39.00
2018-05-08T21:06:19.691Z,38.80
2018-05-08T21:08:47.173Z,38.80
2018-05-08T21:11:14.753Z,38.70
2018-05-08T21:13:42.978Z,38.60
2018-05-08T21:16:10.515Z,38.60
2018-05-08T21:18:38.017Z,38.70
2018-05-08T21:21:05.623Z,38.70
2018-05-08T21:23:33.122Z,38.60
2018-05-08T21:26:00.610Z,38.50
2018-05-08T21:31:29.833Z,38.60
2018-05-08T21:33:59.470Z,38.70
2018-05-08T21:36:26.955Z,38.90
2018-05-08T21:38:54.441Z,39.00
2018-05-08T21:41:22.685Z,39.10
2018-05-08T21:43:50.205Z,39.10
2018-05-08T21:46:17.742Z,40.00
2018-05-08T21:48:45.228Z,39.70
2018-05-08T21:51:12.757Z,39.80
2018-05-08T21:53:40.234Z,40.00
2018-05-08T21:56:07.734Z,40.10
2018-05-08T21:58:35.254Z,40.30
2018-05-08T22:01:02.769Z,40.40
2018-05-08T22:03:30.257Z,40.60
2018-05-08T22:05:57.761Z,41.00
2018-05-08T22:08:27.003Z,41.20
2018-05-08T22:10:54.476Z,41.50
2018-05-08T22:13:21.989Z,41.70
2018-05-08T22:15:50.254Z,41.80
2018-05-08T22:18:17.754Z,41.70
2018-05-08T22:20:45.234Z,41.80
2018-05-08T22:23:12.693Z,41.70
2018-05-08T22:25:40.239Z,41.60
2018-05-08T22:28:07.704Z,41.20
2018-05-08T22:30:35.198Z,41.70
2018-05-08T22:33:03.582Z,41.00
2018-05-08T22:35:31.815Z,40.80
2018-05-08T22:37:59.304Z,40.80
2018-05-08T22:40:26.785Z,40.80
2018-05-08T22:42:54.279Z,40.50
2018-05-08T22:45:21.741Z,40.30
2018-05-08T22:47:49.222Z,40.20
2018-05-08T22:50:17.455Z,40.90
2018-05-08T22:52:44.937Z,40.20
2018-05-08T22:55:13.380Z,40.40
2018-05-08T22:57:40.868Z,40.40
2018-05-08T23:00:08.319Z,40.60
2018-05-08T23:02:36.609Z,40.60
2018-05-08T23:05:05.602Z,41.20
2018-05-08T23:07:33.091Z,41.20
2018-05-08T23:10:01.349Z,41.80
2018-05-08T23:12:29.644Z,42.00
2018-05-08T23:14:57.129Z,42.00
2018-05-08T23:17:24.630Z,42.20
2018-05-08T23:19:52.092Z,42.30
2018-05-08T23:22:20.329Z,42.70
2018-05-08T23:24:47.815Z,42.60
2018-05-08T23:27:16.048Z,42.90
2018-05-08T23:29:43.525Z,42.80
2018-05-08T23:32:11.941Z,43.10
2018-05-08T23:34:39.432Z,43.20
2018-05-08T23:37:06.909Z,43.30
2018-05-08T23:39:34.418Z,43.50
2018-05-08T23:42:01.891Z,43.70
2018-05-08T23:44:29.414Z,43.70
2018-05-08T23:46:57.731Z,44.00
2018-05-08T23:49:25.305Z,44.00
2018-05-08T23:51:52.800Z,44.20
2018-05-08T23:54:21.171Z,44.60
2018-05-08T23:56:48.636Z,44.50
2018-05-08T23:59:16.927Z,45.00
